Time;durP1;ratioP1;P1;durP2;ratioP2;P2;SDS_P1;SDS_P2;PMS_P1;PMS_P2;Temp;Humidity;BMP_temperature;BMP_pressure;BME280_temperature;BME280_humidity;BME280_pressure;Samples;Min_cycle;Max_cycle;Signal;HPM_P1;HPM_P2
2022/06/03 00:05:17;;;;;;;7.90;5.38;;;;;;;11.45;67.92;102032.25;10416134;28;20096;-75
2022/06/03 00:10:47;;;;;;;6.82;4.95;;;;;;;11.18;69.28;102030.31;10411968;28;20049;-76
2022/06/03 00:16:15;;;;;;;6.80;5.47;;;;;;;11.16;69.78;102017.38;10414274;28;20112;-76
2022/06/03 00:21:47;;;;;;;8.65;5.88;;;;;;;11.16;70.30;102014.78;10404674;28;20064;-76
2022/06/03 00:27:07;;;;;;;9.80;5.43;;;;;;;11.24;70.08;102012.50;10441288;28;20504;-76
2022/06/03 00:32:35;;;;;;;7.80;5.85;;;;;;;11.23;70.43;102014.22;10408731;28;20053;-76
2022/06/03 00:37:55;;;;;;;6.53;5.00;;;;;;;11.28;70.22;102011.84;10411113;28;20556;-76
2022/06/03 00:43:22;;;;;;;7.57;4.90;;;;;;;11.31;70.14;102000.75;10410359;28;20095;-76
2022/06/03 00:48:56;;;;;;;6.93;5.20;;;;;;;11.12;70.61;102010.31;10406461;28;20045;-76
2022/06/03 00:54:21;;;;;;;7.13;5.18;;;;;;;10.95;71.86;102012.19;10419769;28;20095;-76
2022/06/03 00:59:47;;;;;;;8.93;5.45;;;;;;;11.14;71.27;102000.03;10408196;28;20107;-76
2022/06/03 01:05:04;;;;;;;8.52;5.47;;;;;;;11.15;71.39;101999.22;10406994;28;20076;-76
2022/06/03 01:10:13;;;;;;;6.85;5.25;;;;;;;11.01;72.28;102002.13;10409868;28;20095;-76
2022/06/03 01:15:29;;;;;;;6.80;5.30;;;;;;;11.00;72.14;101995.19;10409900;28;20049;-76
2022/06/03 01:21:04;;;;;;;7.97;5.93;;;;;;;10.85;72.71;101994.56;10418358;28;20048;-76
2022/06/03 01:26:30;;;;;;;7.07;5.47;;;;;;;10.81;73.38;101992.69;10406611;28;20042;-76
2022/06/03 01:31:53;;;;;;;6.55;4.97;;;;;;;10.79;73.75;101996.06;10409553;28;20115;-76
2022/06/03 01:37:13;;;;;;;6.28;5.28;;;;;;;10.83;73.40;101988.47;10408147;28;20525;-75
2022/06/03 01:42:15;;;;;;;7.25;5.63;;;;;;;10.67;74.19;101995.56;10404228;28;20128;-76
2022/06/03 01:47:42;;;;;;;8.45;5.60;;;;;;;10.69;74.12;101988.75;10409283;28;20385;-75
2022/06/03 01:53:05;;;;;;;8.38;6.18;;;;;;;10.63;74.24;101989.38;10407927;28;20037;-76
2022/06/03 01:58:40;;;;;;;8.93;5.53;;;;;;;10.61;74.91;101988.44;10367730;28;20217;-76
2022/06/03 02:04:05;;;;;;;9.18;5.20;;;;;;;10.67;74.35;101987.81;10405636;28;20041;-75
2022/06/03 02:09:09;;;;;;;10.48;5.35;;;;;;;10.74;74.45;101978.63;10412856;28;20053;-76
2022/06/03 02:14:29;;;;;;;8.52;5.82;;;;;;;10.62;74.69;101971.25;10407448;28;20037;-76
2022/06/03 02:19:49;;;;;;;8.07;5.60;;;;;;;10.61;75.01;101959.22;10408803;28;20057;-76
2022/06/03 02:25:00;;;;;;;;;;;;;;;10.60;75.34;101953.16;10407784;28;20096;-76
2022/06/03 02:30:26;;;;;;;;;;;;;;;10.59;75.16;101955.69;10407670;28;20012;-76
2022/06/03 02:35:41;;;;;;;7.35;5.25;;;;;;;10.55;75.15;101946.03;10424016;28;20000;-76
2022/06/03 02:41:23;;;;;;;8.18;5.68;;;;;;;10.60;75.01;101936.84;10407793;28;20053;-76
2022/06/03 02:47:06;;;;;;;7.88;5.65;;;;;;;10.69;75.20;101924.31;10408387;28;20046;-76
2022/06/03 02:52:36;;;;;;;7.97;5.15;;;;;;;10.69;75.35;101921.72;10378289;28;20095;-76
2022/06/03 02:58:06;;;;;;;9.27;5.97;;;;;;;10.56;75.49;101929.78;10405774;28;20057;-76
2022/06/03 03:03:43;;;;;;;8.30;5.90;;;;;;;10.72;75.09;101924.44;10414369;28;20041;-76
2022/06/03 03:09:13;;;;;;;11.13;6.28;;;;;;;10.75;75.31;101929.75;10389424;28;20407;-76
2022/06/03 03:14:30;;;;;;;7.93;6.00;;;;;;;10.78;75.42;101922.13;10410760;28;20053;-76
2022/06/03 03:19:55;;;;;;;8.93;6.15;;;;;;;10.84;75.03;101911.19;10404180;28;20053;-76
2022/06/03 03:25:15;;;;;;;7.95;6.28;;;;;;;10.73;75.33;101910.75;10404347;28;20485;-75
2022/06/03 03:30:38;;;;;;;9.32;6.63;;;;;;;10.84;74.94;101911.19;10413687;28;20041;-76
2022/06/03 03:36:06;;;;;;;9.00;6.13;;;;;;;10.86;74.94;101907.00;10412791;28;20095;-76
2022/06/03 03:41:42;;;;;;;9.02;6.25;;;;;;;11.09;74.53;101923.38;10397115;28;20068;-76
2022/06/03 03:47:01;;;;;;;9.57;6.30;;;;;;;11.19;73.98;101929.78;10408056;28;20038;-75
2022/06/03 03:52:17;;;;;;;7.38;5.95;;;;;;;11.00;74.55;101930.72;10414397;28;20485;-75
2022/06/03 03:57:40;;;;;;;8.25;5.93;;;;;;;11.25;73.82;101939.47;10415324;28;20045;-75
2022/06/03 04:03:03;;;;;;;8.13;6.22;;;;;;;11.15;73.72;101927.00;10430559;28;20059;-75
2022/06/03 04:08:43;;;;;;;8.05;6.38;;;;;;;11.33;73.75;101917.44;10419648;28;20053;-75
2022/06/03 04:13:50;;;;;;;9.18;6.47;;;;;;;11.41;73.78;101916.03;10412101;28;20075;-76
2022/06/03 04:18:58;;;;;;;9.45;6.63;;;;;;;11.32;73.34;101926.00;10408623;28;20515;-75
2022/06/03 04:24:10;;;;;;;9.88;6.65;;;;;;;11.43;73.48;101909.22;10411727;28;20496;-75
2022/06/03 04:29:35;;;;;;;8.18;6.13;;;;;;;11.20;73.92;101899.72;10411467;28;20054;-75
2022/06/03 04:35:08;;;;;;;7.57;5.95;;;;;;;11.22;73.89;101893.81;10411876;28;20041;-75
2022/06/03 04:40:34;;;;;;;9.20;6.68;;;;;;;11.50;73.72;101909.47;10411610;28;20053;-75
2022/06/03 04:46:14;;;;;;;7.95;6.38;;;;;;;11.81;72.90;101908.03;10407527;28;20045;-75
2022/06/03 04:51:48;;;;;;;7.97;6.28;;;;;;;11.90;72.90;101910.94;10407854;28;20085;-74
2022/06/03 04:57:27;;;;;;;11.93;7.22;;;;;;;11.74;72.36;101902.63;10398633;28;20054;-74
2022/06/03 05:02:31;;;;;;;9.55;6.47;;;;;;;12.00;72.62;101902.75;10411787;28;20046;-75
2022/06/03 05:07:43;;;;;;;9.23;7.00;;;;;;;12.12;72.54;101891.09;10411434;28;20153;-73
2022/06/03 05:13:03;;;;;;;11.43;6.63;;;;;;;12.22;72.01;101885.44;10410722;28;20140;-74
2022/06/03 05:18:11;;;;;;;9.63;7.32;;;;;;;12.21;71.71;101894.00;10410589;28;20044;-76
2022/06/03 05:23:50;;;;;;;8.95;6.80;;;;;;;12.38;71.80;101894.59;10412251;28;20045;-75
2022/06/03 05:29:22;;;;;;;9.90;6.55;;;;;;;12.63;71.84;101890.25;10409066;28;20128;-74
2022/06/03 05:34:30;;;;;;;9.13;6.70;;;;;;;12.57;70.97;101896.09;10411503;28;20141;-75
2022/06/03 05:39:43;;;;;;;10.85;7.13;;;;;;;12.61;71.21;101892.78;10411160;28;20068;-75
2022/06/03 05:45:16;;;;;;;9.55;6.75;;;;;;;12.73;69.80;101886.25;10409316;28;20492;-75
2022/06/03 05:50:49;;;;;;;11.25;7.63;;;;;;;12.97;70.17;101887.06;10411940;28;20041;-74
2022/06/03 05:56:06;;;;;;;10.73;7.43;;;;;;;13.28;70.14;101882.84;10364562;28;20045;-74
2022/06/03 06:01:28;;;;;;;9.60;7.55;;;;;;;13.26;67.69;101883.59;10411276;28;20049;-76
2022/06/03 06:06:56;;;;;;;9.20;6.97;;;;;;;13.64;68.56;101886.50;10405314;28;20041;-76
2022/06/03 06:11:57;;;;;;;11.35;7.38;;;;;;;13.78;66.87;101880.00;10403389;28;20492;-76
2022/06/03 06:17:25;;;;;;;8.10;6.45;;;;;;;13.98;67.43;101881.38;10410227;28;20038;-76
2022/06/03 06:22:39;;;;;;;9.10;7.22;;;;;;;14.23;66.21;101883.81;10407748;28;20041;-76
2022/06/03 06:27:50;;;;;;;10.32;6.65;;;;;;;14.41;65.09;101882.53;10413693;28;20037;-76
2022/06/03 06:33:34;;;;;;;9.05;6.70;;;;;;;14.63;64.26;101872.72;10413138;28;20063;-76
2022/06/03 06:39:10;;;;;;;8.60;6.47;;;;;;;14.90;63.27;101868.22;10412627;28;20385;-76
2022/06/03 06:44:20;;;;;;;9.43;6.18;;;;;;;15.26;62.30;101875.91;10412753;28;20507;-76
2022/06/03 06:50:00;;;;;;;11.10;6.05;;;;;;;16.14;61.49;101876.00;10408613;28;20046;-75
2022/06/03 06:55:42;;;;;;;7.60;5.50;;;;;;;16.27;58.87;101878.84;10409782;28;20053;-76
2022/06/03 07:00:51;;;;;;;7.70;5.60;;;;;;;17.26;56.94;101880.41;10415001;28;20053;-76
2022/06/03 07:06:06;;;;;;;7.37;5.50;;;;;;;17.83;57.04;101880.28;10403297;28;20045;-77
2022/06/03 07:11:24;;;;;;;7.55;5.18;;;;;;;17.54;55.72;101888.59;10418401;28;20292;-76
2022/06/03 07:22:16;;;;;;;6.22;4.70;;;;;;;18.28;54.38;101876.41;10415463;28;20060;-77
2022/06/03 07:27:29;;;;;;;6.75;5.35;;;;;;;18.65;53.33;101871.50;10419363;28;20056;-75
2022/06/03 07:32:39;;;;;;;6.13;4.72;;;;;;;19.11;52.30;101870.09;10412554;28;20072;-76
2022/06/03 07:37:52;;;;;;;6.18;4.60;;;;;;;19.20;52.17;101872.75;10419009;28;20492;-77
2022/06/03 07:43:30;;;;;;;6.82;4.97;;;;;;;19.53;51.47;101865.97;10412689;28;20179;-76
2022/06/03 07:48:34;;;;;;;6.57;4.80;;;;;;;19.57;50.16;101872.94;10412508;28;20056;-76
2022/06/03 07:53:50;;;;;;;5.72;4.50;;;;;;;19.90;50.48;101846.91;10417859;28;20037;-76
2022/06/03 07:59:01;;;;;;;5.60;4.68;;;;;;;19.87;51.24;101841.69;10417693;28;20053;-77
2022/06/03 08:04:07;;;;;;;7.20;5.05;;;;;;;20.69;48.45;101839.09;10416420;28;20493;-76
2022/06/03 08:14:35;;;;;;;5.90;4.75;;;;;;;20.90;47.33;101836.47;10414604;28;20060;-75
2022/06/03 08:19:37;;;;;;;5.60;4.70;;;;;;;21.27;48.28;101832.88;10416930;28;20444;-75
2022/06/03 08:24:41;;;;;;;10.40;4.45;;;;;;;21.31;46.35;101824.09;10413710;28;20041;-76
2022/06/03 08:29:48;;;;;;;5.95;4.40;;;;;;;21.79;49.23;101818.66;10414833;28;20057;-76
2022/06/03 08:34:53;;;;;;;7.32;4.30;;;;;;;21.40;46.05;101815.34;10416595;28;20048;-76
2022/06/03 08:39:59;;;;;;;6.95;4.65;;;;;;;21.23;44.29;101815.41;10413936;28;20053;-76
2022/06/03 08:45:04;;;;;;;7.22;4.13;;;;;;;21.71;44.53;101817.81;10400805;28;20065;-76
2022/06/03 08:50:41;;;;;;;4.90;3.88;;;;;;;21.98;42.83;101802.78;10407734;28;20045;-78
2022/06/03 08:56:07;;;;;;;6.82;3.60;;;;;;;21.65;43.02;101797.78;10403349;28;20107;-76
2022/06/03 09:01:43;;;;;;;5.45;4.18;;;;;;;22.48;44.43;101788.38;10409815;28;20528;-76
2022/06/03 09:07:34;;;;;;;4.30;3.20;;;;;;;21.95;43.70;101782.72;10405629;28;20555;-76
2022/06/03 09:12:47;;;;;;;4.55;3.40;;;;;;;22.33;41.18;101799.00;10368729;28;20145;-75
2022/06/03 09:17:54;;;;;;;5.65;3.78;;;;;;;22.46;43.04;101805.91;10413556;28;20432;-75
2022/06/03 09:22:58;;;;;;;5.30;3.10;;;;;;;;;;10414698;28;20045;-76
2022/06/03 09:28:04;;;;;;;3.88;2.83;;;;;;;23.21;41.89;101795.50;10413638;28;20041;-76
2022/06/03 09:33:11;;;;;;;4.38;2.97;;;;;;;23.58;41.00;101789.75;10415467;28;20060;-75
2022/06/03 09:38:16;;;;;;;3.15;2.10;;;;;;;23.49;40.70;101781.13;10414786;28;20092;-76
2022/06/03 09:43:23;;;;;;;6.03;2.80;;;;;;;23.52;39.19;101783.69;10414496;28;20045;-75
2022/06/03 09:48:29;;;;;;;4.47;2.70;;;;;;;23.33;37.53;101781.31;10409087;28;20049;-74
2022/06/03 09:53:36;;;;;;;4.68;2.35;;;;;;;22.59;38.60;101780.41;10407155;28;20053;-76
2022/06/03 09:58:37;;;;;;;3.83;2.38;;;;;;;23.29;38.31;101774.34;10405741;28;20052;-76
2022/06/03 10:03:39;;;;;;;3.33;2.00;;;;;;;23.40;37.69;101776.84;10413104;28;20065;-76
2022/06/03 10:14:15;;;;;;;2.92;2.15;;;;;;;23.72;35.88;101784.25;10371509;28;20046;-77
2022/06/03 10:19:16;;;;;;;4.07;2.10;;;;;;;23.82;38.38;101792.00;10410043;28;20060;-75
2022/06/03 10:24:23;;;;;;;2.50;1.70;;;;;;;23.56;36.88;101774.88;10415917;28;20045;-76
2022/06/03 10:29:27;;;;;;;2.45;1.80;;;;;;;24.23;36.98;101772.09;10427762;28;20057;-76
2022/06/03 10:34:35;;;;;;;4.68;2.28;;;;;;;23.52;38.85;101762.66;10431657;28;20354;-76
2022/06/03 10:39:41;;;;;;;2.92;2.13;;;;;;;23.74;36.79;101752.69;10421614;28;20586;-76
2022/06/03 10:44:49;;;;;;;3.33;1.83;;;;;;;23.20;34.96;101745.56;10427362;28;20052;-76
2022/06/03 10:49:57;;;;;;;3.17;2.20;;;;;;;23.87;37.10;101733.16;10429250;28;20077;-75
2022/06/03 11:06:12;;;;;;;4.53;2.45;;;;;;;23.69;36.79;101718.56;10407061;28;20481;-76
2022/06/03 11:11:29;;;;;;;2.58;1.88;;;;;;;24.37;38.32;101706.88;10423200;28;20050;-76
2022/06/03 11:16:31;;;;;;;2.17;1.92;;;;;;;23.94;36.55;101702.38;10425783;28;20497;-75
2022/06/03 11:21:32;;;;;;;3.13;1.90;;;;;;;24.13;36.09;101694.16;10413939;28;20049;-75
2022/06/03 11:26:41;;;;;;;3.22;1.95;;;;;;;23.59;33.24;101695.91;10411923;28;20446;-76
2022/06/03 11:31:47;;;;;;;3.63;1.92;;;;;;;24.20;37.04;101694.00;10407042;28;20042;-76
2022/06/03 11:36:56;;;;;;;4.25;2.30;;;;;;;24.59;37.77;101695.91;10407614;28;20495;-75
2022/06/03 11:42:09;;;;;;;2.05;1.70;;;;;;;24.95;36.99;101709.25;10408657;28;20049;-77
2022/06/03 11:47:25;;;;;;;3.13;2.15;;;;;;;24.33;35.79;101699.06;10396436;28;20107;-76
2022/06/03 11:52:26;;;;;;;7.07;2.00;;;;;;;24.19;34.06;101696.66;10409600;28;20562;-75
2022/06/03 11:57:28;;;;;;;5.68;1.73;;;;;;;24.11;34.29;101701.19;10409712;28;20048;-75
2022/06/03 12:08:41;;;;;;;2.53;2.10;;;;;;;24.16;34.51;101694.13;10408201;28;20052;-75
2022/06/03 12:13:42;;;;;;;7.00;2.13;;;;;;;24.63;35.26;101676.50;10408262;28;20049;-75
2022/06/03 12:19:00;;;;;;;2.10;1.60;;;;;;;24.50;35.59;101680.28;10408009;28;20341;-76
2022/06/03 12:24:30;;;;;;;3.00;1.65;;;;;;;24.36;34.66;101677.91;10413844;28;20076;-76
2022/06/03 12:29:36;;;;;;;;;;;;;;;24.70;35.72;101678.13;10411714;28;20069;-77
2022/06/03 12:34:39;;;;;;;3.13;2.08;;;;;;;24.70;37.50;101680.75;10407419;28;19924;-75
2022/06/03 12:39:49;;;;;;;6.30;1.80;;;;;;;24.38;35.43;101673.50;10408672;28;20104;-75
2022/06/03 12:45:14;;;;;;;2.15;1.42;;;;;;;23.92;32.96;101677.84;10393872;28;20552;-74
2022/06/03 12:50:24;;;;;;;4.30;1.58;;;;;;;24.14;35.58;101685.38;10408993;28;20052;-75
2022/06/03 12:55:31;;;;;;;2.30;1.63;;;;;;;23.81;35.32;101679.75;10400424;28;20125;-75
2022/06/03 13:00:48;;;;;;;5.25;1.77;;;;;;;24.31;35.75;101670.09;10404370;28;20041;-77
2022/06/03 13:05:52;;;;;;;3.67;1.55;;;;;;;24.47;33.34;101669.78;10408586;28;20046;-76
2022/06/03 13:11:31;;;;;;;2.10;1.58;;;;;;;24.38;35.22;101665.59;10406412;28;20068;-76
2022/06/03 13:16:33;;;;;;;2.90;1.30;;;;;;;25.05;34.68;101651.91;10407616;28;20103;-76
2022/06/03 13:21:57;;;;;;;2.55;1.75;;;;;;;24.33;33.36;101657.78;10409190;28;20575;-76
2022/06/03 13:27:34;;;;;;;2.30;1.50;;;;;;;24.91;33.44;101648.72;10376066;28;20136;-75
2022/06/03 13:32:36;;;;;;;1.42;1.33;;;;;;;24.35;34.55;101645.47;10308461;28;20053;-76
2022/06/03 13:38:11;;;;;;;1.95;1.58;;;;;;;24.71;33.93;101640.34;10405115;28;20053;-76
2022/06/03 13:43:20;;;;;;;3.50;1.55;;;;;;;24.10;33.27;101647.69;10418871;28;20052;-75
2022/06/03 13:48:33;;;;;;;8.15;1.70;;;;;;;24.06;34.30;101643.38;10400957;28;20038;-75
2022/06/03 13:53:35;;;;;;;6.05;1.35;;;;;;;24.47;35.95;101643.47;10402506;28;20057;-75
2022/06/03 13:58:42;;;;;;;2.97;1.58;;;;;;;24.27;33.87;101655.28;10390407;28;20053;-75
2022/06/03 14:03:56;;;;;;;2.47;1.48;;;;;;;24.20;33.50;101653.66;10404358;28;20050;-76
2022/06/03 14:09:06;;;;;;;1.52;1.42;;;;;;;24.42;32.98;101651.47;10421020;28;20045;-76
2022/06/03 14:14:42;;;;;;;3.75;1.50;;;;;;;24.53;35.53;101654.75;10405193;28;20048;-76
2022/06/03 14:19:52;;;;;;;2.15;1.73;;;;;;;23.85;33.89;101652.53;10402231;28;20539;-76
2022/06/03 14:25:25;;;;;;;3.57;1.70;;;;;;;23.73;33.90;101654.47;10402678;28;20473;-76
2022/06/03 14:30:48;;;;;;;1.60;1.50;;;;;;;23.70;36.26;101645.75;10381101;28;20057;-75
2022/06/03 14:35:56;;;;;;;2.25;1.50;;;;;;;23.57;34.16;101650.34;10394145;28;20037;-76
2022/06/03 14:40:58;;;;;;;2.15;1.50;;;;;;;23.29;34.36;101645.53;10404070;28;20041;-75
2022/06/03 14:46:05;;;;;;;2.95;1.40;;;;;;;23.46;35.66;101647.88;10400142;28;20084;-76
2022/06/03 14:51:17;;;;;;;3.40;1.30;;;;;;;23.51;35.53;101639.94;10406704;28;20069;-76
2022/06/03 14:56:37;;;;;;;1.95;1.73;;;;;;;23.31;36.34;101643.75;10415014;28;20489;-75
2022/06/03 15:01:58;;;;;;;3.08;1.50;;;;;;;23.27;35.91;101642.09;10408938;28;20469;-75
2022/06/03 15:07:04;;;;;;;8.18;1.80;;;;;;;23.63;35.93;101637.13;10407817;28;20045;-76
2022/06/03 15:12:22;;;;;;;2.85;1.67;;;;;;;23.52;36.80;101646.94;10411583;28;20041;-75
2022/06/03 15:17:28;;;;;;;7.05;1.90;;;;;;;23.67;35.25;101646.69;10408401;28;20124;-76
2022/06/03 15:22:37;;;;;;;3.97;1.60;;;;;;;23.65;35.76;101658.97;10426760;28;20053;-76
2022/06/03 15:27:55;;;;;;;2.07;1.47;;;;;;;23.36;36.29;101648.94;10411848;28;20519;-75
2022/06/03 15:32:57;;;;;;;3.17;1.80;;;;;;;23.56;36.12;101638.13;10411908;28;20041;-75
2022/06/03 15:38:00;;;;;;;3.38;1.73;;;;;;;23.48;35.68;101637.38;10407367;28;20049;-75
2022/06/03 15:43:07;;;;;;;3.65;1.80;;;;;;;23.31;35.59;101632.38;10410616;28;20046;-76
2022/06/03 15:48:22;;;;;;;2.83;1.60;;;;;;;23.81;35.44;101648.19;10409300;28;20060;-75
2022/06/03 15:53:26;;;;;;;5.47;1.55;;;;;;;24.08;35.73;101647.75;10409753;28;20111;-76
2022/06/03 15:58:58;;;;;;;2.88;1.63;;;;;;;23.59;36.69;101636.31;10403943;28;20045;-75
2022/06/03 16:04:17;;;;;;;4.43;1.58;;;;;;;23.80;38.06;101634.19;10400294;28;20080;-76
2022/06/03 16:09:36;;;;;;;2.60;1.70;;;;;;;23.29;35.69;101622.75;10408914;28;20045;-75
2022/06/03 16:14:37;;;;;;;3.22;1.70;;;;;;;23.41;36.42;101612.94;10410672;28;20037;-75
2022/06/03 16:20:00;;;;;;;2.25;1.58;;;;;;;23.70;38.28;101609.81;10405789;28;20057;-76
2022/06/03 16:25:23;;;;;;;2.80;1.60;;;;;;;23.58;36.68;101621.41;10406001;28;20037;-76
2022/06/03 16:30:47;;;;;;;7.20;1.70;;;;;;;23.48;37.83;101613.69;10410486;28;20509;-76
2022/06/03 16:36:22;;;;;;;3.75;1.80;;;;;;;23.41;36.32;101628.69;10410735;28;20045;-76
2022/06/03 16:41:37;;;;;;;2.42;1.50;;;;;;;23.21;35.90;101619.38;10405426;28;20041;-76
2022/06/03 16:46:54;;;;;;;2.20;1.75;;;;;;;23.24;36.91;101619.31;10406189;28;20050;-76
2022/06/03 16:52:01;;;;;;;4.47;2.15;;;;;;;23.11;37.77;101626.50;10395663;28;20566;-75
2022/06/03 16:57:08;;;;;;;5.95;1.80;;;;;;;22.85;36.69;101623.38;10409207;28;20046;-75
2022/06/03 17:02:24;;;;;;;4.40;1.90;;;;;;;22.74;37.52;101619.16;10399169;28;20053;-75
2022/06/03 17:07:37;;;;;;;3.15;2.03;;;;;;;22.58;37.63;101620.25;10419391;28;20049;-76
2022/06/03 17:12:47;;;;;;;2.45;1.63;;;;;;;22.68;39.11;101628.88;10403579;28;20107;-75
2022/06/03 17:17:49;;;;;;;3.80;1.77;;;;;;;22.44;37.79;101623.03;10403889;28;20397;-75
2022/06/03 17:22:56;;;;;;;5.18;1.65;;;;;;;22.47;39.47;101621.22;10406027;28;20063;-75
2022/06/03 17:28:19;;;;;;;2.55;1.90;;;;;;;22.32;38.14;101621.38;10404944;28;20104;-75
2022/06/03 17:33:32;;;;;;;2.65;1.70;;;;;;;22.15;39.03;101622.44;10405549;28;20065;-75
2022/06/03 17:38:40;;;;;;;3.05;1.67;;;;;;;22.18;39.51;101627.66;10396450;28;20042;-76
2022/06/03 17:43:52;;;;;;;3.10;1.80;;;;;;;22.22;40.39;101622.41;10396570;28;20045;-76
2022/06/03 17:49:12;;;;;;;3.75;1.85;;;;;;;21.95;41.34;101630.53;10401903;28;20308;-76
2022/06/03 18:00:09;;;;;;;2.78;1.70;;;;;;;21.79;41.22;101640.28;10403677;28;20566;-76
2022/06/03 18:05:30;;;;;;;3.10;1.75;;;;;;;21.62;41.76;101643.06;10403983;28;20053;-76
2022/06/03 18:10:35;;;;;;;2.55;1.75;;;;;;;21.62;40.96;101639.59;10404934;28;20095;-75
2022/06/03 18:15:38;;;;;;;3.70;1.70;;;;;;;21.63;42.38;101638.72;10405977;28;20119;-74
2022/06/03 18:20:51;;;;;;;2.58;1.60;;;;;;;21.40;43.20;101644.97;10405616;28;20041;-76
2022/06/03 18:26:02;;;;;;;2.45;1.67;;;;;;;21.34;41.93;101643.25;10404957;28;20041;-76
2022/06/03 18:31:29;;;;;;;3.83;1.90;;;;;;;21.22;41.15;101646.84;10398940;28;20129;-75
2022/06/03 18:36:51;;;;;;;2.83;1.80;;;;;;;21.20;41.10;101648.59;10406869;28;20048;-76
2022/06/03 18:42:11;;;;;;;6.20;1.77;;;;;;;20.98;41.44;101654.84;10399534;28;20046;-75
2022/06/03 18:47:44;;;;;;;3.05;1.80;;;;;;;20.91;41.11;101665.34;10410945;28;20063;-76
2022/06/03 18:53:14;;;;;;;2.53;1.58;;;;;;;20.94;40.37;101661.00;10405177;28;20041;-76
2022/06/03 18:59:01;;;;;;;3.45;1.77;;;;;;;20.78;41.54;101658.44;10407255;28;20038;-74
2022/06/03 19:04:30;;;;;;;3.53;1.60;;;;;;;20.60;42.01;101670.69;10394663;28;20049;-76
2022/06/03 19:10:03;;;;;;;4.78;1.80;;;;;;;20.43;42.34;101673.38;10400793;28;20041;-75
2022/06/03 19:15:16;;;;;;;3.15;2.10;;;;;;;20.17;44.06;101673.44;10401076;28;20045;-75
2022/06/03 19:20:32;;;;;;;3.08;2.05;;;;;;;20.08;44.99;101681.28;10395137;28;20045;-76
2022/06/03 19:25:43;;;;;;;4.60;1.92;;;;;;;19.85;45.95;101690.00;10404816;28;20077;-75
2022/06/03 19:30:49;;;;;;;3.90;2.25;;;;;;;19.70;47.30;101688.25;10404993;28;20053;-75
2022/06/03 19:35:52;;;;;;;3.15;1.73;;;;;;;19.53;47.80;101696.09;10411438;28;20049;-75
2022/06/03 19:41:05;;;;;;;5.97;2.13;;;;;;;19.33;48.88;101696.91;10412176;28;20103;-75
2022/06/03 19:46:25;;;;;;;4.57;2.20;;;;;;;19.22;48.82;101701.25;10410120;28;20053;-75
2022/06/03 19:51:58;;;;;;;6.20;2.08;;;;;;;19.09;49.13;101712.53;10411797;28;20085;-76
2022/06/03 19:57:09;;;;;;;5.75;1.88;;;;;;;19.12;49.22;101717.75;10397959;28;20054;-76
2022/06/03 20:02:31;;;;;;;3.75;2.10;;;;;;;18.89;49.62;101728.94;10406666;28;20091;-76
2022/06/03 20:07:44;;;;;;;4.22;2.30;;;;;;;18.76;49.53;101740.19;10409843;28;20192;-74
2022/06/03 20:18:23;;;;;;;;;;;;;;;18.51;49.70;101755.69;10410024;28;20033;-74
2022/06/03 20:23:57;;;;;;;4.15;1.55;;;;;;;18.29;50.00;101755.56;10410066;28;20388;-75
2022/06/03 20:29:17;;;;;;;3.53;1.75;;;;;;;18.20;48.81;101763.31;10380435;28;20103;-77
2022/06/03 20:34:55;;;;;;;3.47;1.60;;;;;;;18.16;48.58;101774.56;10401265;28;20056;-76
2022/06/03 20:40:08;;;;;;;5.82;1.75;;;;;;;18.00;49.01;101779.66;10406596;28;20501;-76
2022/06/03 20:45:29;;;;;;;2.78;1.70;;;;;;;17.93;49.54;101790.84;10410389;28;20045;-75
2022/06/03 20:50:54;;;;;;;3.30;1.80;;;;;;;17.82;50.56;101795.97;10398188;28;20079;-75
2022/06/03 20:56:08;;;;;;;2.22;1.40;;;;;;;17.68;49.70;101814.09;10405834;28;20489;-75
2022/06/03 21:01:13;;;;;;;2.28;1.40;;;;;;;17.61;49.74;101820.06;10406217;28;20045;-76
2022/06/03 21:16:56;;;;;;;7.05;1.48;;;;;;;17.12;49.59;101834.22;10408448;28;20488;-75
2022/06/03 21:22:00;;;;;;;3.97;1.48;;;;;;;17.03;48.98;101834.09;10406277;28;20408;-75
2022/06/03 21:27:02;;;;;;;5.63;1.73;;;;;;;16.95;49.17;101841.81;10406315;28;20034;-76
2022/06/03 21:32:14;;;;;;;3.08;1.65;;;;;;;16.78;49.37;101851.94;10407374;28;20117;-76
2022/06/03 21:37:32;;;;;;;7.85;1.58;;;;;;;16.83;49.56;101856.34;10398378;28;20516;-75
2022/06/03 21:42:47;;;;;;;2.72;1.63;;;;;;;16.61;49.90;101862.06;10395478;28;20436;-76
2022/06/03 21:48:24;;;;;;;3.05;1.60;;;;;;;16.46;50.38;101857.50;10379790;28;20096;-76
2022/06/03 21:53:44;;;;;;;4.32;1.42;;;;;;;16.38;50.49;101859.09;10406613;28;20049;-76
2022/06/03 21:58:46;;;;;;;;;;;;;;;16.17;51.23;101868.28;10406162;28;20382;-76
2022/06/03 22:03:49;;;;;;;3.25;1.30;;;;;;;16.01;51.22;101872.28;10405904;28;19929;-75
2022/06/03 22:08:52;;;;;;;2.97;1.20;;;;;;;16.13;50.20;101874.25;10400455;28;20041;-76
2022/06/03 22:13:54;;;;;;;4.45;1.48;;;;;;;15.98;50.65;101872.25;10399926;28;20057;-75
2022/06/03 22:18:55;;;;;;;2.83;1.55;;;;;;;15.74;51.20;101882.13;10402986;28;20037;-75
2022/06/03 22:23:58;;;;;;;2.92;1.30;;;;;;;15.67;50.53;101884.59;10404507;28;20266;-76
2022/06/03 22:29:24;;;;;;;3.67;1.20;;;;;;;15.60;50.50;101881.84;10384147;28;20412;-76
2022/06/03 22:34:32;;;;;;;2.63;1.30;;;;;;;15.42;50.58;101885.81;10415715;28;20104;-77
2022/06/03 22:39:49;;;;;;;1.38;1.08;;;;;;;15.31;51.08;101884.69;10408728;28;20107;-75
2022/06/03 22:44:51;;;;;;;2.70;1.25;;;;;;;15.26;50.86;101881.13;10403599;28;20072;-76
2022/06/03 22:49:53;;;;;;;2.08;1.25;;;;;;;15.23;51.07;101879.34;10403855;28;20049;-76
2022/06/03 22:54:55;;;;;;;5.95;1.27;;;;;;;15.16;51.44;101874.84;10405305;28;20052;-76
2022/06/03 22:59:57;;;;;;;2.60;1.50;;;;;;;15.08;51.50;101877.25;10404011;28;20041;-75
2022/06/03 23:04:59;;;;;;;3.25;1.50;;;;;;;15.00;52.19;101876.22;10410636;28;20158;-76
2022/06/03 23:10:01;;;;;;;2.10;1.27;;;;;;;14.92;51.99;101870.84;10409352;28;20057;-75
2022/06/03 23:15:06;;;;;;;1.58;1.20;;;;;;;14.84;52.33;101869.78;10434901;28;20080;-75
2022/06/03 23:20:33;;;;;;;3.40;1.35;;;;;;;14.69;52.50;101868.56;10432510;28;20057;-75
2022/06/03 23:25:34;;;;;;;2.67;1.55;;;;;;;14.63;53.06;101867.53;10410466;28;20436;-75
2022/06/03 23:30:36;;;;;;;3.03;1.63;;;;;;;14.54;53.65;101863.88;10413934;28;20045;-75
2022/06/03 23:35:38;;;;;;;2.75;1.60;;;;;;;14.43;54.44;101870.47;10415253;28;20053;-75
2022/06/03 23:40:44;;;;;;;4.00;1.58;;;;;;;14.35;54.71;101879.78;10418927;28;20496;-76
2022/06/03 23:45:46;;;;;;;5.00;1.92;;;;;;;14.28;54.89;101865.81;10414404;28;20041;-75
2022/06/03 23:50:48;;;;;;;3.38;1.75;;;;;;;14.16;55.76;101868.03;10417627;28;20108;-76
2022/06/03 23:55:52;;;;;;;3.78;1.90;;;;;;;13.89;56.67;101867.34;10389647;28;20045;-75
